Time;durP1;ratioP1;P1;durP2;ratioP2;P2;SDS_P1;SDS_P2;PMS_P1;PMS_P2;Temp;Humidity;BMP_temperature;BMP_pressure;BME280_temperature;BME280_humidity;BME280_pressure;Samples;Min_cycle;Max_cycle;Signal;HPM_P1;HPM_P2
2024/04/07 00:00:19;;;;;;;1.90;1.80;;;17.00;84.60;;;;;;484328;245;28885;-72
2024/04/07 00:02:07;;;;;;;3.80;1.80;;;16.90;85.50;;;;;;483306;245;28877;-73
2024/04/07 00:04:08;;;;;;;2.00;1.80;;;16.80;86.00;;;;;;484333;245;28947;-72
2024/04/07 00:06:10;;;;;;;3.33;2.00;;;16.80;86.00;;;;;;484313;245;28857;-73
2024/04/07 00:08:11;;;;;;;3.07;1.67;;;16.80;85.80;;;;;;484328;245;28812;-72
2024/04/07 00:10:13;;;;;;;2.40;1.83;;;16.70;85.80;;;;;;484327;245;28860;-72
2024/04/07 00:12:13;;;;;;;7.57;1.97;;;16.80;85.20;;;;;;484336;245;29313;-73
2024/04/07 00:14:15;;;;;;;2.60;1.90;;;16.90;84.80;;;;;;484345;245;29226;-73
2024/04/07 00:16:16;;;;;;;5.77;2.50;;;16.90;84.30;;;;;;484342;245;29377;-74
2024/04/07 00:18:17;;;;;;;2.53;1.50;;;16.90;83.90;;;;;;484334;245;29352;-73
2024/04/07 00:20:18;;;;;;;5.77;1.67;;;17.00;84.20;;;;;;484317;245;28841;-74
2024/04/07 00:22:20;;;;;;;6.47;2.23;;;16.90;84.30;;;;;;484318;245;28840;-75
2024/04/07 00:24:21;;;;;;;13.90;2.00;;;17.00;83.10;;;;;;484312;242;28883;-74
2024/04/07 00:26:22;;;;;;;3.70;2.10;;;17.00;82.90;;;;;;484211;245;28865;-74
2024/04/07 00:28:23;;;;;;;4.47;1.93;;;17.10;83.00;;;;;;484346;245;29205;-74
2024/04/07 00:30:25;;;;;;;2.07;1.90;;;17.10;83.40;;;;;;484330;245;28809;-74
2024/04/07 00:32:26;;;;;;;1.63;1.53;;;17.00;82.70;;;;;;484339;245;28854;-75
2024/04/07 00:34:27;;;;;;;2.53;2.07;;;17.10;82.60;;;;;;484303;245;28796;-73
2024/04/07 00:36:28;;;;;;;2.17;1.90;;;17.10;82.30;;;;;;484321;245;29327;-73
2024/04/07 00:38:30;;;;;;;3.37;1.73;;;17.20;82.40;;;;;;484344;245;29397;-75
2024/04/07 00:40:31;;;;;;;2.47;2.00;;;17.20;81.10;;;;;;484345;245;29252;-73
2024/04/07 00:42:32;;;;;;;2.53;1.70;;;17.40;80.50;;;;;;484278;245;28882;-74
2024/04/07 00:44:34;;;;;;;3.37;1.83;;;17.60;78.50;;;;;;484260;245;28828;-74
2024/04/07 00:46:35;;;;;;;2.80;1.50;;;17.70;78.10;;;;;;483890;245;28845;-73
2024/04/07 00:48:36;;;;;;;2.67;1.60;;;17.80;78.40;;;;;;483749;245;28946;-74
2024/04/07 00:50:37;;;;;;;3.07;1.80;;;17.80;78.40;;;;;;483652;245;28828;-74
2024/04/07 00:52:39;;;;;;;6.23;1.60;;;17.80;77.10;;;;;;483828;245;28847;-74
2024/04/07 00:54:43;;;;;;;5.70;1.90;;;17.80;76.40;;;;;;484240;245;29235;-74
2024/04/07 00:56:44;;;;;;;2.93;1.60;;;17.90;75.70;;;;;;484180;245;28944;-73
2024/04/07 00:58:45;;;;;;;4.17;1.93;;;18.10;73.60;;;;;;484328;245;28824;-74
2024/04/07 01:00:46;;;;;;;3.50;1.53;;;18.30;73.20;;;;;;484329;245;28845;-74
2024/04/07 01:02:48;;;;;;;5.03;1.83;;;18.40;73.40;;;;;;484333;245;28813;-72
2024/04/07 01:04:49;;;;;;;11.13;2.00;;;18.30;73.70;;;;;;484322;245;28873;-73
2024/04/07 01:06:50;;;;;;;1.67;1.40;;;18.20;73.90;;;;;;484346;245;28970;-74
2024/04/07 01:08:51;;;;;;;9.30;2.13;;;18.10;74.10;;;;;;484328;245;28896;-73
2024/04/07 01:10:53;;;;;;;6.17;2.23;;;18.10;74.90;;;;;;484340;245;29397;-73
2024/04/07 01:12:54;;;;;;;2.17;1.53;;;18.00;73.40;;;;;;484362;245;29475;-73
2024/04/07 01:14:55;;;;;;;5.50;1.97;;;18.10;73.10;;;;;;484349;245;29263;-74
2024/04/07 01:16:56;;;;;;;2.97;1.83;;;18.30;72.60;;;;;;484370;245;28903;-73
2024/04/07 01:18:58;;;;;;;5.33;2.20;;;18.40;71.80;;;;;;484280;245;28802;-73
2024/04/07 01:20:59;;;;;;;5.63;1.70;;;18.50;70.90;;;;;;484360;245;28857;-73
2024/04/07 01:23:00;;;;;;;5.20;1.67;;;18.50;71.90;;;;;;484349;245;28872;-75
2024/04/07 01:25:01;;;;;;;8.23;2.20;;;18.50;71.30;;;;;;484361;245;28818;-73
2024/04/07 01:27:03;;;;;;;4.40;2.00;;;18.60;70.80;;;;;;484312;245;28857;-74
2024/04/07 01:29:04;;;;;;;7.83;2.03;;;18.60;70.80;;;;;;484355;245;28922;-74
2024/04/07 01:31:05;;;;;;;4.93;1.53;;;18.60;70.60;;;;;;484337;245;28829;-73
2024/04/07 01:33:06;;;;;;;2.30;1.70;;;18.60;70.80;;;;;;484367;245;28831;-74
2024/04/07 01:35:08;;;;;;;7.00;1.70;;;18.70;70.30;;;;;;484334;245;29247;-73
2024/04/07 01:37:09;;;;;;;2.13;1.40;;;18.60;70.20;;;;;;484351;245;29310;-74
2024/04/07 01:39:10;;;;;;;4.87;1.97;;;18.60;70.40;;;;;;484332;245;29273;-73
2024/04/07 01:41:11;;;;;;;3.90;1.93;;;18.70;69.80;;;;;;484359;245;29661;-74
2024/04/07 01:43:13;;;;;;;3.70;1.83;;;18.70;70.20;;;;;;484347;245;28855;-74
2024/04/07 01:45:14;;;;;;;5.40;2.03;;;18.70;70.30;;;;;;484329;245;28896;-73
2024/04/07 01:47:15;;;;;;;9.23;2.10;;;18.70;70.50;;;;;;484335;245;28929;-74
2024/04/07 01:49:17;;;;;;;3.70;1.60;;;18.70;69.80;;;;;;484348;245;28847;-73
2024/04/07 01:51:18;;;;;;;4.70;1.40;;;18.90;69.60;;;;;;484345;245;28810;-74
2024/04/07 01:53:19;;;;;;;7.83;1.53;;;18.90;69.60;;;;;;484349;245;28873;-74
2024/04/07 01:55:20;;;;;;;2.97;1.70;;;18.90;69.90;;;;;;484348;245;28895;-74
2024/04/07 01:57:22;;;;;;;5.20;2.10;;;18.90;69.90;;;;;;484352;245;28844;-73
2024/04/07 01:59:23;;;;;;;5.20;1.60;;;18.70;70.20;;;;;;484354;242;29323;-75
2024/04/07 02:01:24;;;;;;;8.53;2.20;;;18.70;70.40;;;;;;484352;245;29274;-74
2024/04/07 02:03:25;;;;;;;5.80;2.00;;;18.60;70.90;;;;;;484341;245;29441;-73
2024/04/07 02:05:27;;;;;;;4.97;1.93;;;18.60;70.70;;;;;;484362;245;29425;-74
2024/04/07 02:07:28;;;;;;;2.97;1.97;;;18.50;71.00;;;;;;484373;245;28826;-72
2024/04/07 02:09:29;;;;;;;4.33;1.80;;;18.40;71.90;;;;;;484389;245;28847;-75
2024/04/07 02:11:30;;;;;;;3.87;1.70;;;18.20;72.70;;;;;;484365;245;28939;-74
2024/04/07 02:13:32;;;;;;;2.60;1.63;;;18.00;72.80;;;;;;484372;245;28851;-75
2024/04/07 02:15:33;;;;;;;4.57;1.90;;;18.00;72.90;;;;;;484365;245;28834;-74
2024/04/07 02:17:35;;;;;;;2.60;1.73;;;17.90;72.50;;;;;;484405;245;28927;-74
2024/04/07 02:19:35;;;;;;;4.63;1.90;;;17.90;73.00;;;;;;484321;245;28866;-74
2024/04/07 02:21:37;;;;;;;2.60;1.60;;;17.80;73.10;;;;;;484306;245;28949;-73
2024/04/07 02:23:38;;;;;;;3.50;1.70;;;17.80;73.20;;;;;;484313;245;28901;-73
2024/04/07 02:25:39;;;;;;;2.93;1.90;;;17.90;73.90;;;;;;484330;245;29406;-73
2024/04/07 02:27:40;;;;;;;1.53;1.43;;;17.80;74.00;;;;;;484334;245;29253;-73
2024/04/07 02:29:42;;;;;;;9.20;2.50;;;17.80;73.80;;;;;;484357;245;29308;-74
2024/04/07 02:31:43;;;;;;;2.93;1.67;;;17.80;74.10;;;;;;484345;245;28923;-73
2024/04/07 02:33:47;;;;;;;9.83;2.43;;;17.70;74.20;;;;;;484302;245;28834;-73
2024/04/07 02:35:48;;;;;;;4.53;1.80;;;17.70;74.30;;;;;;484349;245;29316;-73
2024/04/07 02:37:49;;;;;;;5.40;2.17;;;17.70;75.00;;;;;;484386;245;28963;-74
2024/04/07 02:39:51;;;;;;;4.40;1.77;;;17.60;75.10;;;;;;484378;245;28880;-74
2024/04/07 02:41:52;;;;;;;8.30;2.10;;;17.50;75.80;;;;;;484368;245;28875;-74
2024/04/07 02:43:53;;;;;;;2.30;1.50;;;17.40;75.50;;;;;;484365;245;28806;-72
2024/04/07 02:48:14;;;;;;;8.10;1.70;;;17.20;76.50;;;;;;484337;245;28846;-74
2024/04/07 02:50:15;;;;;;;3.27;1.57;;;17.20;77.40;;;;;;484371;245;28826;-74
2024/04/07 02:52:17;;;;;;;4.60;1.60;;;17.10;77.60;;;;;;484382;245;28889;-73
2024/04/07 02:54:18;;;;;;;3.60;1.53;;;17.10;77.30;;;;;;484368;245;28840;-73
2024/04/07 02:56:20;;;;;;;14.80;2.37;;;17.10;77.70;;;;;;484345;245;28797;-72
2024/04/07 02:58:20;;;;;;;8.33;2.07;;;17.20;76.80;;;;;;484313;245;29331;-73
2024/04/07 03:00:22;;;;;;;5.63;1.57;;;17.20;77.70;;;;;;484377;243;29389;-74
2024/04/07 03:02:23;;;;;;;7.50;1.90;;;17.10;77.90;;;;;;484374;245;29378;-74
2024/04/07 03:04:24;;;;;;;11.43;2.30;;;17.20;77.70;;;;;;484367;245;28946;-74
2024/04/07 03:06:25;;;;;;;5.60;1.50;;;17.30;78.00;;;;;;484356;245;28881;-73
2024/04/07 03:08:27;;;;;;;4.30;1.70;;;17.30;77.80;;;;;;484378;245;28822;-74
2024/04/07 03:10:28;;;;;;;4.60;1.80;;;17.20;78.30;;;;;;484367;245;28842;-73
2024/04/07 03:12:29;;;;;;;8.10;2.00;;;17.20;78.70;;;;;;484365;245;28810;-73
2024/04/07 03:14:30;;;;;;;6.87;2.30;;;17.10;78.70;;;;;;484380;245;28961;-74
2024/04/07 03:16:32;;;;;;;8.23;1.73;;;17.00;79.80;;;;;;484365;245;28817;-74
2024/04/07 03:18:33;;;;;;;5.23;1.73;;;16.90;80.10;;;;;;484391;245;28812;-74
2024/04/07 03:20:34;;;;;;;3.10;1.93;;;16.90;80.00;;;;;;484367;245;28842;-74
2024/04/07 03:22:35;;;;;;;4.07;1.60;;;16.90;80.50;;;;;;484337;245;29241;-72
2024/04/07 03:24:37;;;;;;;4.50;1.90;;;16.80;81.20;;;;;;484369;245;29327;-74
2024/04/07 03:26:38;;;;;;;2.73;1.57;;;16.80;80.70;;;;;;484344;245;29414;-74
2024/04/07 03:28:39;;;;;;;6.20;2.03;;;16.80;81.30;;;;;;484344;245;28797;-73
2024/04/07 03:30:42;;;;;;;10.17;2.23;;;16.70;81.70;;;;;;484331;245;28853;-73
2024/04/07 03:32:42;;;;;;;4.03;1.50;;;16.80;81.20;;;;;;484259;245;28816;-73
2024/04/07 03:34:43;;;;;;;6.17;1.70;;;16.80;81.60;;;;;;484338;245;28867;-71
2024/04/07 03:36:44;;;;;;;4.30;1.87;;;16.80;81.90;;;;;;484364;245;28923;-75
2024/04/07 03:38:46;;;;;;;7.10;1.43;;;16.70;82.10;;;;;;484257;245;28789;-73
2024/04/07 03:40:47;;;;;;;3.57;1.73;;;16.70;82.20;;;;;;484354;245;28854;-74
2024/04/07 03:42:49;;;;;;;3.70;1.77;;;16.70;82.70;;;;;;484348;245;28814;-72
2024/04/07 03:44:49;;;;;;;5.00;2.07;;;16.50;83.40;;;;;;484292;245;28839;-74
2024/04/07 03:46:50;;;;;;;4.77;1.67;;;16.50;83.60;;;;;;484297;245;29294;-74
2024/04/07 03:48:52;;;;;;;4.90;1.70;;;16.50;83.70;;;;;;484328;245;29338;-73
2024/04/07 03:50:53;;;;;;;3.00;1.83;;;16.40;83.80;;;;;;484332;245;29324;-74
2024/04/07 03:52:54;;;;;;;4.10;1.90;;;16.30;84.30;;;;;;484197;245;29378;-74
2024/04/07 03:54:55;;;;;;;5.40;1.90;;;16.30;84.70;;;;;;484351;245;28904;-73
2024/04/07 03:56:57;;;;;;;3.37;1.60;;;16.20;84.90;;;;;;484333;245;28840;-73
2024/04/07 03:58:58;;;;;;;10.00;2.30;;;16.20;85.20;;;;;;484328;245;28877;-73
2024/04/07 04:00:59;;;;;;;4.53;1.60;;;16.10;85.40;;;;;;484304;245;28924;-73
2024/04/07 04:03:00;;;;;;;5.20;1.77;;;16.10;85.60;;;;;;484376;245;28871;-76
2024/04/07 04:05:02;;;;;;;4.50;1.50;;;16.10;85.90;;;;;;484338;245;28928;-73
2024/04/07 04:07:03;;;;;;;2.40;1.40;;;16.00;86.20;;;;;;484327;245;28858;-73
2024/04/07 04:09:05;;;;;;;2.17;1.50;;;16.00;86.20;;;;;;484326;245;28821;-73
2024/04/07 04:11:05;;;;;;;12.83;2.13;;;15.90;86.20;;;;;;484271;245;29268;-73
2024/04/07 04:13:07;;;;;;;3.83;1.60;;;15.90;87.20;;;;;;484336;245;29349;-73
2024/04/07 04:15:08;;;;;;;7.23;1.87;;;15.80;87.10;;;;;;484315;245;29371;-72
2024/04/07 04:17:09;;;;;;;7.40;1.50;;;15.80;87.10;;;;;;484334;245;28857;-73
2024/04/07 04:19:10;;;;;;;3.30;1.80;;;15.90;86.90;;;;;;484317;245;28859;-74
2024/04/07 04:21:12;;;;;;;6.60;1.87;;;15.80;87.50;;;;;;484321;245;28822;-72
2024/04/07 04:23:13;;;;;;;6.53;2.20;;;15.70;88.00;;;;;;484338;245;28963;-75
2024/04/07 04:25:15;;;;;;;3.50;1.90;;;15.60;88.60;;;;;;484340;245;28898;-74
2024/04/07 04:27:16;;;;;;;3.63;1.70;;;15.60;88.60;;;;;;484290;245;28845;-72
2024/04/07 04:29:17;;;;;;;2.53;1.37;;;15.50;88.80;;;;;;484291;245;28864;-72
2024/04/07 04:31:18;;;;;;;6.03;1.93;;;15.50;88.60;;;;;;484328;245;28818;-74
2024/04/07 04:33:19;;;;;;;2.87;1.83;;;15.50;88.60;;;;;;484322;245;28884;-72
2024/04/07 04:35:20;;;;;;;5.30;1.60;;;15.50;88.70;;;;;;484337;245;29422;-72
2024/04/07 04:37:22;;;;;;;5.77;1.80;;;15.50;88.70;;;;;;484313;245;29335;-72
2024/04/07 04:39:23;;;;;;;3.13;1.97;;;15.50;89.30;;;;;;484344;245;29496;-72
2024/04/07 04:41:24;;;;;;;2.40;1.40;;;15.50;89.40;;;;;;484339;245;28805;-72
2024/04/07 04:43:25;;;;;;;4.37;1.90;;;15.40;89.70;;;;;;484336;245;28838;-72
2024/04/07 04:45:27;;;;;;;8.73;1.73;;;15.40;89.10;;;;;;484298;245;28923;-72
2024/04/07 04:47:28;;;;;;;11.33;2.00;;;15.40;89.90;;;;;;484320;245;28925;-72
2024/04/07 04:49:29;;;;;;;4.87;1.70;;;15.30;90.10;;;;;;484370;242;28863;-75
2024/04/07 04:51:30;;;;;;;11.47;2.07;;;15.30;90.10;;;;;;484303;245;28845;-71
2024/04/07 04:53:32;;;;;;;8.90;1.97;;;15.30;90.20;;;;;;484333;245;28951;-71
2024/04/07 04:55:33;;;;;;;3.47;1.70;;;15.30;90.30;;;;;;484329;245;28895;-73
2024/04/07 04:57:35;;;;;;;3.20;1.63;;;15.20;90.30;;;;;;484326;245;29307;-73
2024/04/07 04:59:35;;;;;;;2.63;1.50;;;15.10;90.20;;;;;;484323;245;29428;-73
2024/04/07 05:01:37;;;;;;;3.07;1.73;;;15.10;90.40;;;;;;484276;245;29438;-73
2024/04/07 05:03:38;;;;;;;6.40;2.03;;;15.10;90.50;;;;;;484328;245;29327;-73
2024/04/07 05:05:39;;;;;;;7.67;1.53;;;15.10;90.70;;;;;;484289;245;28841;-73
2024/04/07 05:07:40;;;;;;;2.60;1.40;;;15.10;90.90;;;;;;484316;245;28916;-73
2024/04/07 05:09:42;;;;;;;1.73;1.30;;;15.10;90.80;;;;;;484324;245;28921;-73
2024/04/07 05:11:43;;;;;;;3.70;1.83;;;15.00;90.80;;;;;;484313;245;28901;-73
2024/04/07 05:13:44;;;;;;;3.07;1.60;;;15.00;91.10;;;;;;484197;245;28906;-72
2024/04/07 05:15:45;;;;;;;3.43;1.50;;;15.00;91.00;;;;;;484313;245;29226;-76
2024/04/07 05:17:47;;;;;;;3.43;1.40;;;15.00;91.10;;;;;;484343;245;28845;-74
2024/04/07 05:19:48;;;;;;;6.67;1.40;;;15.00;91.20;;;;;;484324;245;28847;-74
2024/04/07 05:21:49;;;;;;;3.40;1.60;;;15.00;91.40;;;;;;484319;245;29256;-74
2024/04/07 05:23:50;;;;;;;7.53;2.43;;;15.00;91.30;;;;;;484331;245;29388;-72
2024/04/07 05:25:52;;;;;;;2.40;1.63;;;15.00;91.10;;;;;;484350;245;29428;-76
2024/04/07 05:27:53;;;;;;;4.03;1.90;;;15.10;91.30;;;;;;484346;245;29279;-74
2024/04/07 05:29:54;;;;;;;7.53;2.03;;;15.00;91.40;;;;;;484334;245;28915;-72
2024/04/07 05:31:56;;;;;;;3.50;1.60;;;15.10;91.40;;;;;;484320;245;28852;-74
2024/04/07 05:33:57;;;;;;;4.40;1.83;;;15.00;91.50;;;;;;484348;245;28897;-73
2024/04/07 05:35:58;;;;;;;6.73;1.90;;;15.00;91.30;;;;;;484373;245;28860;-75
2024/04/07 05:37:59;;;;;;;3.53;1.40;;;15.10;91.30;;;;;;484353;245;28797;-74
2024/04/07 05:40:01;;;;;;;4.83;1.40;;;15.10;91.10;;;;;;484345;245;28901;-74
2024/04/07 05:42:02;;;;;;;3.90;1.90;;;15.10;91.20;;;;;;484312;245;28832;-74
2024/04/07 05:44:03;;;;;;;3.37;1.40;;;15.10;91.40;;;;;;484368;245;28817;-73
2024/04/07 05:46:04;;;;;;;6.90;1.80;;;15.10;91.30;;;;;;484360;245;28874;-75
2024/04/07 05:48:06;;;;;;;3.20;1.90;;;15.20;91.20;;;;;;484360;245;29265;-72
2024/04/07 05:50:07;;;;;;;5.00;1.70;;;15.20;91.30;;;;;;484337;245;29306;-72
2024/04/07 05:52:08;;;;;;;6.30;2.10;;;15.30;91.10;;;;;;484363;245;29375;-76
2024/04/07 05:54:09;;;;;;;4.67;1.47;;;15.30;91.40;;;;;;484368;245;28937;-74
2024/04/07 05:56:11;;;;;;;2.90;1.57;;;15.30;91.20;;;;;;484359;245;28914;-73
2024/04/07 05:58:12;;;;;;;3.20;1.70;;;15.30;91.30;;;;;;484327;245;28815;-74
2024/04/07 06:00:13;;;;;;;5.77;1.83;;;15.30;91.30;;;;;;484339;245;28823;-74
2024/04/07 06:02:14;;;;;;;3.50;1.80;;;15.30;91.50;;;;;;484368;245;28848;-76
2024/04/07 06:04:16;;;;;;;2.77;1.60;;;15.30;91.40;;;;;;484353;245;28922;-74
2024/04/07 06:06:17;;;;;;;10.77;1.80;;;15.30;91.50;;;;;;484344;245;28902;-74
2024/04/07 06:08:18;;;;;;;5.30;1.83;;;15.30;91.20;;;;;;484346;245;28809;-74
2024/04/07 06:10:19;;;;;;;6.13;1.87;;;15.40;91.30;;;;;;484365;245;28792;-74
2024/04/07 06:12:21;;;;;;;11.40;2.30;;;15.40;91.40;;;;;;484345;245;29328;-74
2024/04/07 06:14:22;;;;;;;3.17;1.60;;;15.40;91.30;;;;;;484337;245;29382;-73
2024/04/07 06:16:23;;;;;;;4.83;1.80;;;15.50;91.30;;;;;;484340;245;29420;-74
2024/04/07 06:18:25;;;;;;;9.33;2.30;;;15.50;91.40;;;;;;484360;245;28846;-75
2024/04/07 06:20:26;;;;;;;4.73;1.80;;;15.50;91.80;;;;;;484339;245;28812;-74
2024/04/07 06:22:27;;;;;;;6.10;2.17;;;15.60;91.90;;;;;;484368;245;28839;-74
2024/04/07 06:24:28;;;;;;;2.23;1.50;;;15.60;91.70;;;;;;484330;245;28810;-74
2024/04/07 06:26:29;;;;;;;10.33;2.40;;;15.70;91.70;;;;;;484352;245;28921;-74
2024/04/07 06:28:31;;;;;;;7.30;2.20;;;15.70;91.90;;;;;;484354;245;28859;-73
2024/04/07 06:30:32;;;;;;;5.07;1.90;;;15.80;91.40;;;;;;484377;245;28843;-71
2024/04/07 06:32:33;;;;;;;4.43;2.20;;;15.80;91.90;;;;;;484333;245;28858;-73
2024/04/07 06:34:34;;;;;;;2.97;1.83;;;15.80;91.80;;;;;;484346;245;29348;-73
2024/04/07 06:36:36;;;;;;;10.40;2.40;;;15.90;91.90;;;;;;484348;245;29289;-74
2024/04/07 06:38:37;;;;;;;6.73;1.80;;;16.00;91.50;;;;;;484369;245;29358;-75
2024/04/07 06:40:38;;;;;;;7.27;1.97;;;16.00;91.60;;;;;;484341;245;28844;-74
2024/04/07 06:42:40;;;;;;;5.53;1.70;;;16.00;91.60;;;;;;484319;245;28884;-74
2024/04/07 06:44:41;;;;;;;5.93;1.87;;;16.10;91.60;;;;;;484268;245;28859;-74
2024/04/07 06:46:42;;;;;;;3.13;1.70;;;16.20;91.40;;;;;;484332;245;28896;-74
2024/04/07 06:48:43;;;;;;;6.70;2.03;;;16.30;91.40;;;;;;484268;245;28848;-74
2024/04/07 06:50:45;;;;;;;6.13;1.87;;;16.40;91.30;;;;;;484253;245;28805;-72
2024/04/07 06:52:46;;;;;;;12.73;2.20;;;16.30;91.60;;;;;;484186;245;28897;-74
2024/04/07 06:54:47;;;;;;;8.63;2.30;;;16.40;91.80;;;;;;484340;245;28857;-74
2024/04/07 06:56:48;;;;;;;3.13;1.60;;;16.40;91.90;;;;;;484322;245;28836;-74
2024/04/07 06:58:49;;;;;;;8.47;1.83;;;16.40;91.50;;;;;;484310;245;29386;-73
2024/04/07 07:00:51;;;;;;;4.40;1.80;;;16.40;91.50;;;;;;484307;245;29438;-74
2024/04/07 07:02:52;;;;;;;5.40;1.80;;;16.50;91.30;;;;;;484289;245;29393;-74
2024/04/07 07:04:53;;;;;;;2.27;1.80;;;16.50;91.70;;;;;;484333;245;28868;-75
2024/04/07 07:06:54;;;;;;;6.73;1.93;;;16.50;91.60;;;;;;484348;245;28816;-74
2024/04/07 07:08:56;;;;;;;4.83;1.57;;;16.60;92.10;;;;;;484350;245;28846;-75
2024/04/07 07:11:00;;;;;;;2.40;1.77;;;16.60;91.80;;;;;;484332;245;28812;-74
2024/04/07 07:13:01;;;;;;;13.03;1.83;;;16.60;91.60;;;;;;484342;245;28928;-74
2024/04/07 07:15:03;;;;;;;4.13;1.63;;;16.70;91.80;;;;;;484356;245;29352;-72
2024/04/07 07:17:03;;;;;;;3.53;2.00;;;16.80;91.70;;;;;;484369;245;29407;-75
2024/04/07 07:19:05;;;;;;;3.50;1.67;;;16.80;91.80;;;;;;484331;245;29253;-74
2024/04/07 07:21:06;;;;;;;9.03;1.80;;;16.80;92.00;;;;;;484278;245;29309;-73
2024/04/07 07:23:07;;;;;;;5.23;1.70;;;16.70;92.00;;;;;;484311;245;28858;-74
2024/04/07 07:25:08;;;;;;;2.73;1.63;;;16.70;92.50;;;;;;484365;245;28821;-73
2024/04/07 07:27:10;;;;;;;4.03;1.70;;;16.70;92.30;;;;;;484336;245;28833;-74
2024/04/07 07:29:12;;;;;;;5.50;1.77;;;16.80;92.40;;;;;;484309;245;28845;-73
2024/04/07 07:31:12;;;;;;;5.47;2.03;;;16.70;92.10;;;;;;484274;245;28837;-73
2024/04/07 07:33:14;;;;;;;7.43;2.23;;;16.70;92.20;;;;;;484342;245;28879;-74
2024/04/07 07:35:15;;;;;;;4.90;2.10;;;16.70;92.00;;;;;;484367;245;28813;-73
2024/04/07 07:37:16;;;;;;;3.20;1.80;;;16.80;91.80;;;;;;484344;245;28848;-74
2024/04/07 07:39:17;;;;;;;12.57;2.37;;;16.90;91.40;;;;;;484337;245;28807;-74
2024/04/07 07:41:18;;;;;;;8.40;1.97;;;17.00;91.60;;;;;;484200;245;29300;-73
2024/04/07 07:43:20;;;;;;;7.80;2.27;;;17.00;92.00;;;;;;484346;245;29353;-74
2024/04/07 07:45:21;;;;;;;5.43;1.93;;;17.00;91.60;;;;;;484305;245;29317;-74
2024/04/07 07:47:22;;;;;;;5.63;2.37;;;17.10;91.60;;;;;;484341;245;28920;-73
2024/04/07 07:49:23;;;;;;;7.03;2.00;;;17.00;91.40;;;;;;484327;245;28852;-74
2024/04/07 07:51:25;;;;;;;3.67;1.90;;;17.20;91.50;;;;;;484345;245;28821;-73
2024/04/07 07:53:26;;;;;;;5.43;1.80;;;17.20;91.70;;;;;;484354;245;28844;-75
2024/04/07 07:55:27;;;;;;;6.43;1.90;;;17.10;91.80;;;;;;484344;245;28884;-73
2024/04/07 07:57:28;;;;;;;3.07;1.90;;;17.10;91.90;;;;;;484334;245;28852;-74
2024/04/07 07:59:30;;;;;;;6.77;2.40;;;17.20;91.80;;;;;;484333;245;28832;-73
2024/04/07 08:01:31;;;;;;;4.87;2.03;;;17.20;91.60;;;;;;484354;245;28858;-73
2024/04/07 08:03:32;;;;;;;5.20;1.70;;;17.30;91.80;;;;;;484332;245;29401;-75
2024/04/07 08:05:33;;;;;;;4.27;2.83;;;17.40;91.60;;;;;;484329;245;29328;-72
2024/04/07 08:07:35;;;;;;;5.80;2.10;;;17.50;91.30;;;;;;484319;245;29380;-72
2024/04/07 08:09:36;;;;;;;3.27;1.70;;;17.50;91.30;;;;;;484342;245;29355;-73
2024/04/07 08:11:37;;;;;;;7.37;2.40;;;17.50;91.40;;;;;;484332;245;28791;-74
2024/04/07 08:13:38;;;;;;;7.07;2.10;;;17.40;91.50;;;;;;484320;245;28865;-75
2024/04/07 08:15:41;;;;;;;4.97;2.00;;;17.50;91.60;;;;;;484324;245;28895;-75
2024/04/07 08:17:41;;;;;;;9.43;2.37;;;17.50;91.70;;;;;;484274;245;28854;-73
2024/04/07 08:19:42;;;;;;;7.13;2.00;;;17.60;91.40;;;;;;484356;245;28937;-74
2024/04/07 08:21:43;;;;;;;2.57;1.67;;;17.60;91.30;;;;;;484302;245;28820;-73
2024/04/07 08:23:45;;;;;;;6.80;2.33;;;17.70;91.50;;;;;;484314;245;28928;-74
2024/04/07 08:25:46;;;;;;;5.17;1.57;;;17.80;91.50;;;;;;484309;243;28872;-74
2024/04/07 08:27:47;;;;;;;5.43;1.90;;;17.80;91.80;;;;;;484338;245;28879;-72
2024/04/07 08:29:48;;;;;;;6.23;2.10;;;17.90;91.70;;;;;;484344;245;29395;-72
2024/04/07 08:31:50;;;;;;;8.23;3.00;;;18.00;91.30;;;;;;484349;245;29263;-73
2024/04/07 08:33:51;;;;;;;5.83;2.13;;;18.10;91.30;;;;;;484329;245;29356;-74
2024/04/07 08:35:52;;;;;;;6.50;2.07;;;18.10;91.40;;;;;;484374;245;28940;-75
2024/04/07 08:37:53;;;;;;;6.13;1.97;;;18.00;91.60;;;;;;484352;245;28861;-74
2024/04/07 08:39:55;;;;;;;6.53;1.80;;;18.00;91.90;;;;;;484334;245;28851;-73
2024/04/07 08:41:56;;;;;;;7.27;2.17;;;17.90;91.70;;;;;;484342;245;28904;-74
2024/04/07 08:43:57;;;;;;;5.27;1.90;;;18.10;91.70;;;;;;484308;245;28840;-74
2024/04/07 08:45:58;;;;;;;6.07;2.87;;;18.00;91.40;;;;;;484367;245;28924;-75
2024/04/07 08:48:00;;;;;;;6.90;1.80;;;18.00;91.20;;;;;;484349;245;28936;-73
2024/04/07 08:50:02;;;;;;;14.07;2.67;;;18.00;91.70;;;;;;484339;245;28851;-74
2024/04/07 08:52:02;;;;;;;12.60;2.20;;;18.00;91.20;;;;;;484269;245;29393;-72
2024/04/07 08:54:03;;;;;;;3.50;1.80;;;18.10;91.20;;;;;;484344;245;29386;-74
2024/04/07 08:56:05;;;;;;;4.93;2.03;;;18.20;91.20;;;;;;484372;245;29427;-75
2024/04/07 08:58:06;;;;;;;3.07;1.73;;;18.30;90.80;;;;;;484360;245;29266;-74
2024/04/07 09:00:08;;;;;;;4.37;1.73;;;18.40;90.70;;;;;;484337;245;28953;-74
2024/04/07 09:02:08;;;;;;;6.73;2.10;;;18.30;90.60;;;;;;484337;245;28951;-77
2024/04/07 09:04:10;;;;;;;4.00;2.10;;;18.40;90.70;;;;;;484346;245;28805;-73
2024/04/07 09:06:11;;;;;;;6.33;1.97;;;18.40;91.20;;;;;;484333;245;28905;-74
2024/04/07 09:08:12;;;;;;;6.73;2.10;;;18.40;90.90;;;;;;484307;245;28974;-74
2024/04/07 09:10:13;;;;;;;2.90;1.60;;;18.40;90.70;;;;;;484333;245;28872;-73
2024/04/07 09:12:15;;;;;;;2.83;1.60;;;18.50;91.10;;;;;;484339;245;28851;-75
2024/04/07 09:14:16;;;;;;;5.90;1.63;;;18.70;91.10;;;;;;484323;245;28818;-72
2024/04/07 09:16:17;;;;;;;4.77;2.30;;;18.90;91.10;;;;;;484325;245;29329;-74
2024/04/07 09:18:20;;;;;;;2.80;2.00;;;19.00;91.20;;;;;;484332;245;30048;-74
2024/04/07 09:20:20;;;;;;;5.40;1.70;;;19.10;90.30;;;;;;484259;245;29380;-73
2024/04/07 09:22:22;;;;;;;7.03;2.07;;;19.30;90.00;;;;;;484323;245;29442;-74
2024/04/07 09:24:22;;;;;;;5.90;2.07;;;19.50;88.20;;;;;;484244;245;28824;-74
2024/04/07 09:26:23;;;;;;;3.07;2.00;;;19.60;88.20;;;;;;484320;245;28849;-74
2024/04/07 09:28:25;;;;;;;7.07;2.00;;;19.90;89.80;;;;;;484335;245;28828;-73
2024/04/07 09:30:26;;;;;;;3.87;1.60;;;20.00;88.90;;;;;;484347;245;28801;-73
2024/04/07 09:32:27;;;;;;;3.57;1.57;;;20.10;88.20;;;;;;484357;245;28948;-75
2024/04/07 09:34:31;;;;;;;3.90;1.73;;;20.20;87.90;;;;;;484353;245;28817;-73
2024/04/07 09:36:30;;;;;;;4.20;2.13;;;20.40;88.50;;;;;;484164;245;28916;-73
2024/04/07 09:38:31;;;;;;;4.10;1.60;;;20.40;84.50;;;;;;484355;245;28971;-74
2024/04/07 09:40:32;;;;;;;3.10;1.80;;;20.50;84.10;;;;;;484360;245;29271;-73
2024/04/07 09:42:33;;;;;;;2.97;1.60;;;20.70;81.20;;;;;;484349;245;29356;-74
2024/04/07 09:44:35;;;;;;;2.60;1.53;;;20.80;82.20;;;;;;484362;245;29252;-73
2024/04/07 09:46:36;;;;;;;7.17;1.80;;;21.00;82.90;;;;;;484347;245;29414;-73
2024/04/07 09:48:37;;;;;;;4.13;1.67;;;20.90;82.50;;;;;;484367;245;28865;-75
2024/04/07 09:50:38;;;;;;;4.87;1.60;;;20.80;83.10;;;;;;484331;245;28800;-73
2024/04/07 09:52:40;;;;;;;5.13;2.07;;;20.60;82.90;;;;;;484294;245;28898;-73
2024/04/07 09:54:41;;;;;;;4.70;1.70;;;20.70;85.00;;;;;;484314;245;28855;-73
2024/04/07 09:56:42;;;;;;;3.33;1.40;;;20.70;84.10;;;;;;484335;245;28813;-74
2024/04/07 09:58:43;;;;;;;3.47;1.50;;;20.80;83.40;;;;;;484319;245;28829;-74
2024/04/07 10:00:45;;;;;;;2.83;1.37;;;20.70;83.40;;;;;;484337;245;28805;-73
2024/04/07 10:02:46;;;;;;;6.20;1.70;;;20.70;82.80;;;;;;484336;245;28817;-74
2024/04/07 10:04:47;;;;;;;7.50;1.70;;;20.30;83.00;;;;;;484348;245;29325;-75
2024/04/07 10:06:48;;;;;;;3.27;1.73;;;20.20;82.90;;;;;;484308;245;29416;-73
2024/04/07 10:08:50;;;;;;;1.97;1.40;;;20.20;82.20;;;;;;484353;245;29439;-74
2024/04/07 10:10:51;;;;;;;7.73;1.73;;;20.10;84.70;;;;;;484337;245;29388;-73
2024/04/07 10:12:53;;;;;;;3.13;1.40;;;20.10;83.30;;;;;;484339;245;28834;-74
2024/04/07 10:14:53;;;;;;;2.57;1.50;;;20.10;86.30;;;;;;484295;245;28955;-73
2024/04/07 10:16:56;;;;;;;3.40;1.50;;;20.00;83.80;;;;;;484347;245;28875;-73
2024/04/07 10:18:56;;;;;;;8.43;1.53;;;20.00;83.50;;;;;;484267;245;28885;-73
2024/04/07 10:20:57;;;;;;;3.10;1.60;;;19.90;84.60;;;;;;484113;245;29414;-73
2024/04/07 10:23:00;;;;;;;4.13;1.30;;;19.90;84.70;;;;;;484200;245;28921;-73
2024/04/07 10:25:00;;;;;;;1.80;1.40;;;20.10;87.50;;;;;;484239;245;28841;-74
2024/04/07 10:27:01;;;;;;;1.70;1.60;;;20.20;85.80;;;;;;484313;245;28844;-74
2024/04/07 10:29:02;;;;;;;4.53;1.93;;;20.30;84.90;;;;;;484318;245;28871;-73
2024/04/07 10:31:04;;;;;;;5.50;1.70;;;20.40;85.50;;;;;;484329;245;29392;-74